sensor_id;sensor_type;location;lat;lon;timestamp;temperature;humidity
33761;DHT22;20084;47.912;19.044;2024-03-29T00:02:04;9.90;99.90
33761;DHT22;20084;47.912;19.044;2024-03-29T00:04:30;9.80;99.90
33761;DHT22;20084;47.912;19.044;2024-03-29T00:06:56;9.70;99.90
33761;DHT22;20084;47.912;19.044;2024-03-29T00:09:21;9.70;99.90
33761;DHT22;20084;47.912;19.044;2024-03-29T00:11:47;9.70;99.90
33761;DHT22;20084;47.912;19.044;2024-03-29T00:14:13;9.80;99.90
33761;DHT22;20084;47.912;19.044;2024-03-29T00:16:38;9.80;99.90
33761;DHT22;20084;47.912;19.044;2024-03-29T00:19:04;9.80;99.90
33761;DHT22;20084;47.912;19.044;2024-03-29T00:21:30;9.70;99.90
33761;DHT22;20084;47.912;19.044;2024-03-29T00:23:56;9.70;99.90
33761;DHT22;20084;47.912;19.044;2024-03-29T00:26:22;9.80;99.90
33761;DHT22;20084;47.912;19.044;2024-03-29T00:28:47;9.80;99.90
33761;DHT22;20084;47.912;19.044;2024-03-29T00:31:13;9.70;99.90
33761;DHT22;20084;47.912;19.044;2024-03-29T00:33:38;9.70;99.90
33761;DHT22;20084;47.912;19.044;2024-03-29T00:36:04;9.70;99.90
33761;DHT22;20084;47.912;19.044;2024-03-29T00:38:30;9.80;99.90
33761;DHT22;20084;47.912;19.044;2024-03-29T00:40:56;9.80;99.90
33761;DHT22;20084;47.912;19.044;2024-03-29T00:43:21;9.90;99.90
33761;DHT22;20084;47.912;19.044;2024-03-29T00:45:47;10.00;99.90
33761;DHT22;20084;47.912;19.044;2024-03-29T00:48:12;9.90;99.90
33761;DHT22;20084;47.912;19.044;2024-03-29T00:50:41;9.80;99.90
33761;DHT22;20084;47.912;19.044;2024-03-29T00:53:06;9.90;99.90
33761;DHT22;20084;47.912;19.044;2024-03-29T00:55:32;9.90;99.90
33761;DHT22;20084;47.912;19.044;2024-03-29T00:57:57;10.00;99.90
33761;DHT22;20084;47.912;19.044;2024-03-29T01:00:23;10.00;99.90
33761;DHT22;20084;47.912;19.044;2024-03-29T01:02:49;9.90;99.90
33761;DHT22;20084;47.912;19.044;2024-03-29T01:05:15;9.80;99.90
33761;DHT22;20084;47.912;19.044;2024-03-29T01:07:41;9.70;99.90
33761;DHT22;20084;47.912;19.044;2024-03-29T01:10:07;9.70;99.90
33761;DHT22;20084;47.912;19.044;2024-03-29T01:12:34;9.70;99.90
33761;DHT22;20084;47.912;19.044;2024-03-29T01:15:00;9.50;99.90
33761;DHT22;20084;47.912;19.044;2024-03-29T01:17:28;9.40;99.90
33761;DHT22;20084;47.912;19.044;2024-03-29T01:19:53;9.50;99.90
33761;DHT22;20084;47.912;19.044;2024-03-29T01:22:19;9.40;99.90
33761;DHT22;20084;47.912;19.044;2024-03-29T01:24:45;9.40;99.90
33761;DHT22;20084;47.912;19.044;2024-03-29T01:27:10;9.40;99.90
33761;DHT22;20084;47.912;19.044;2024-03-29T01:29:36;9.50;99.90
33761;DHT22;20084;47.912;19.044;2024-03-29T01:32:03;9.50;99.90
33761;DHT22;20084;47.912;19.044;2024-03-29T01:34:29;9.50;99.90
33761;DHT22;20084;47.912;19.044;2024-03-29T01:36:54;9.50;99.90
33761;DHT22;20084;47.912;19.044;2024-03-29T01:39:20;9.50;99.90
33761;DHT22;20084;47.912;19.044;2024-03-29T01:41:52;9.50;99.90
33761;DHT22;20084;47.912;19.044;2024-03-29T01:44:18;9.50;99.90
33761;DHT22;20084;47.912;19.044;2024-03-29T01:46:44;9.50;99.90
33761;DHT22;20084;47.912;19.044;2024-03-29T01:49:10;9.60;99.90
33761;DHT22;20084;47.912;19.044;2024-03-29T01:51:37;9.60;99.90
33761;DHT22;20084;47.912;19.044;2024-03-29T01:54:05;9.70;99.90
33761;DHT22;20084;47.912;19.044;2024-03-29T01:56:32;9.70;99.90
33761;DHT22;20084;47.912;19.044;2024-03-29T01:58:58;9.60;99.90
33761;DHT22;20084;47.912;19.044;2024-03-29T02:01:26;9.70;99.90
33761;DHT22;20084;47.912;19.044;2024-03-29T02:03:54;9.70;99.90
33761;DHT22;20084;47.912;19.044;2024-03-29T02:06:20;9.70;99.90
33761;DHT22;20084;47.912;19.044;2024-03-29T02:08:49;9.60;99.90
33761;DHT22;20084;47.912;19.044;2024-03-29T02:11:17;9.60;99.90
33761;DHT22;20084;47.912;19.044;2024-03-29T02:13:43;9.50;99.90
33761;DHT22;20084;47.912;19.044;2024-03-29T02:16:09;9.50;99.90
33761;DHT22;20084;47.912;19.044;2024-03-29T02:18:35;9.50;99.90
33761;DHT22;20084;47.912;19.044;2024-03-29T02:21:01;9.60;99.90
33761;DHT22;20084;47.912;19.044;2024-03-29T02:23:27;9.50;99.90
33761;DHT22;20084;47.912;19.044;2024-03-29T02:25:55;9.50;99.90
33761;DHT22;20084;47.912;19.044;2024-03-29T02:28:22;9.60;99.90
33761;DHT22;20084;47.912;19.044;2024-03-29T02:30:49;9.60;99.90
33761;DHT22;20084;47.912;19.044;2024-03-29T02:33:15;9.70;99.90
33761;DHT22;20084;47.912;19.044;2024-03-29T02:35:41;9.70;99.90
33761;DHT22;20084;47.912;19.044;2024-03-29T02:38:06;9.70;99.90
33761;DHT22;20084;47.912;19.044;2024-03-29T02:40:32;9.80;99.90
33761;DHT22;20084;47.912;19.044;2024-03-29T02:42:58;9.70;99.90
33761;DHT22;20084;47.912;19.044;2024-03-29T02:45:23;9.70;99.90
33761;DHT22;20084;47.912;19.044;2024-03-29T02:47:49;9.80;99.90
33761;DHT22;20084;47.912;19.044;2024-03-29T02:50:15;9.80;99.90
33761;DHT22;20084;47.912;19.044;2024-03-29T02:52:41;10.00;99.90
33761;DHT22;20084;47.912;19.044;2024-03-29T02:55:08;10.10;99.90
33761;DHT22;20084;47.912;19.044;2024-03-29T02:57:36;10.30;99.90
33761;DHT22;20084;47.912;19.044;2024-03-29T03:00:02;10.50;99.90
33761;DHT22;20084;47.912;19.044;2024-03-29T03:02:29;10.60;99.90
33761;DHT22;20084;47.912;19.044;2024-03-29T03:04:54;10.80;99.90
33761;DHT22;20084;47.912;19.044;2024-03-29T03:07:20;10.90;99.90
33761;DHT22;20084;47.912;19.044;2024-03-29T03:10:04;10.90;99.90
33761;DHT22;20084;47.912;19.044;2024-03-29T03:12:49;10.80;99.90
33761;DHT22;20084;47.912;19.044;2024-03-29T03:15:14;10.90;99.90
33761;DHT22;20084;47.912;19.044;2024-03-29T03:17:40;10.90;99.90
33761;DHT22;20084;47.912;19.044;2024-03-29T03:20:06;10.90;99.90
33761;DHT22;20084;47.912;19.044;2024-03-29T03:22:32;10.80;99.90
33761;DHT22;20084;47.912;19.044;2024-03-29T03:24:58;10.80;99.90
33761;DHT22;20084;47.912;19.044;2024-03-29T03:27:23;10.70;99.90
33761;DHT22;20084;47.912;19.044;2024-03-29T03:29:50;10.80;99.90
33761;DHT22;20084;47.912;19.044;2024-03-29T03:32:15;10.90;99.90
33761;DHT22;20084;47.912;19.044;2024-03-29T03:34:41;10.80;99.90
33761;DHT22;20084;47.912;19.044;2024-03-29T03:37:07;10.70;99.90
33761;DHT22;20084;47.912;19.044;2024-03-29T03:39:32;10.70;99.90
33761;DHT22;20084;47.912;19.044;2024-03-29T03:41:59;10.70;99.90
33761;DHT22;20084;47.912;19.044;2024-03-29T03:44:24;10.60;99.90
33761;DHT22;20084;47.912;19.044;2024-03-29T03:46:51;10.60;99.90
33761;DHT22;20084;47.912;19.044;2024-03-29T03:49:17;10.60;99.90
33761;DHT22;20084;47.912;19.044;2024-03-29T03:51:43;10.50;99.90
33761;DHT22;20084;47.912;19.044;2024-03-29T03:54:08;10.50;99.90
33761;DHT22;20084;47.912;19.044;2024-03-29T03:56:34;10.60;99.90
33761;DHT22;20084;47.912;19.044;2024-03-29T03:58:59;10.60;99.90
33761;DHT22;20084;47.912;19.044;2024-03-29T04:01:25;10.60;99.90
33761;DHT22;20084;47.912;19.044;2024-03-29T04:03:51;10.60;99.90
33761;DHT22;20084;47.912;19.044;2024-03-29T04:06:16;10.50;99.90
33761;DHT22;20084;47.912;19.044;2024-03-29T04:08:44;10.40;99.90
33761;DHT22;20084;47.912;19.044;2024-03-29T04:11:10;10.30;99.90
33761;DHT22;20084;47.912;19.044;2024-03-29T04:13:36;10.20;99.90
33761;DHT22;20084;47.912;19.044;2024-03-29T04:16:05;10.00;99.90
33761;DHT22;20084;47.912;19.044;2024-03-29T04:18:31;9.90;99.90
33761;DHT22;20084;47.912;19.044;2024-03-29T04:21:01;9.90;99.90
33761;DHT22;20084;47.912;19.044;2024-03-29T04:23:27;9.90;99.90
33761;DHT22;20084;47.912;19.044;2024-03-29T04:25:54;9.80;99.90
33761;DHT22;20084;47.912;19.044;2024-03-29T04:28:20;9.60;99.90
33761;DHT22;20084;47.912;19.044;2024-03-29T04:30:58;9.60;99.90
33761;DHT22;20084;47.912;19.044;2024-03-29T04:33:25;9.70;99.90
33761;DHT22;20084;47.912;19.044;2024-03-29T04:36:04;9.80;99.90
33761;DHT22;20084;47.912;19.044;2024-03-29T04:38:31;9.90;99.90
33761;DHT22;20084;47.912;19.044;2024-03-29T04:40:57;10.00;99.90
33761;DHT22;20084;47.912;19.044;2024-03-29T04:43:25;10.00;99.90
33761;DHT22;20084;47.912;19.044;2024-03-29T04:46:07;10.00;99.90
33761;DHT22;20084;47.912;19.044;2024-03-29T04:48:35;10.10;99.90
33761;DHT22;20084;47.912;19.044;2024-03-29T04:51:01;10.00;99.90
33761;DHT22;20084;47.912;19.044;2024-03-29T04:53:26;10.00;99.90
33761;DHT22;20084;47.912;19.044;2024-03-29T04:55:58;10.00;99.90
33761;DHT22;20084;47.912;19.044;2024-03-29T04:58:25;10.00;99.90
33761;DHT22;20084;47.912;19.044;2024-03-29T05:00:51;10.10;99.90
33761;DHT22;20084;47.912;19.044;2024-03-29T05:03:17;10.20;99.90
33761;DHT22;20084;47.912;19.044;2024-03-29T05:05:44;10.40;99.90
33761;DHT22;20084;47.912;19.044;2024-03-29T05:08:10;10.50;99.90
33761;DHT22;20084;47.912;19.044;2024-03-29T05:10:35;10.60;99.90
33761;DHT22;20084;47.912;19.044;2024-03-29T05:13:01;10.60;99.90
33761;DHT22;20084;47.912;19.044;2024-03-29T05:15:27;10.60;99.90
33761;DHT22;20084;47.912;19.044;2024-03-29T05:17:53;10.60;99.90
33761;DHT22;20084;47.912;19.044;2024-03-29T05:20:19;10.60;99.90
33761;DHT22;20084;47.912;19.044;2024-03-29T05:22:44;10.50;99.90
33761;DHT22;20084;47.912;19.044;2024-03-29T05:25:10;10.40;99.90
33761;DHT22;20084;47.912;19.044;2024-03-29T05:27:36;10.40;99.90
33761;DHT22;20084;47.912;19.044;2024-03-29T05:30:05;10.40;99.90
33761;DHT22;20084;47.912;19.044;2024-03-29T05:32:31;10.50;99.90
33761;DHT22;20084;47.912;19.044;2024-03-29T05:34:57;10.70;99.90
33761;DHT22;20084;47.912;19.044;2024-03-29T05:37:23;10.70;99.90
33761;DHT22;20084;47.912;19.044;2024-03-29T05:39:51;10.70;99.90
33761;DHT22;20084;47.912;19.044;2024-03-29T05:42:31;10.80;99.90
33761;DHT22;20084;47.912;19.044;2024-03-29T05:44:57;10.90;99.90
33761;DHT22;20084;47.912;19.044;2024-03-29T05:47:23;11.00;99.90
33761;DHT22;20084;47.912;19.044;2024-03-29T05:49:49;10.90;99.90
33761;DHT22;20084;47.912;19.044;2024-03-29T05:52:15;11.00;99.90
33761;DHT22;20084;47.912;19.044;2024-03-29T05:54:43;11.10;99.90
33761;DHT22;20084;47.912;19.044;2024-03-29T05:57:09;11.10;99.90
33761;DHT22;20084;47.912;19.044;2024-03-29T05:59:35;11.00;99.90
33761;DHT22;20084;47.912;19.044;2024-03-29T06:02:01;11.00;99.90
33761;DHT22;20084;47.912;19.044;2024-03-29T06:04:27;10.90;99.90
33761;DHT22;20084;47.912;19.044;2024-03-29T06:07:02;10.80;99.90
33761;DHT22;20084;47.912;19.044;2024-03-29T06:09:28;10.80;99.90
33761;DHT22;20084;47.912;19.044;2024-03-29T06:11:55;10.70;99.90
33761;DHT22;20084;47.912;19.044;2024-03-29T06:14:22;10.70;99.90
33761;DHT22;20084;47.912;19.044;2024-03-29T06:17:07;10.70;99.90
33761;DHT22;20084;47.912;19.044;2024-03-29T06:19:48;10.70;99.90
33761;DHT22;20084;47.912;19.044;2024-03-29T06:22:16;10.70;99.90
33761;DHT22;20084;47.912;19.044;2024-03-29T06:24:42;10.80;99.90
33761;DHT22;20084;47.912;19.044;2024-03-29T06:27:10;10.80;99.90
33761;DHT22;20084;47.912;19.044;2024-03-29T06:29:35;10.90;99.90
33761;DHT22;20084;47.912;19.044;2024-03-29T06:32:01;10.90;99.90
33761;DHT22;20084;47.912;19.044;2024-03-29T06:34:30;10.80;99.90
33761;DHT22;20084;47.912;19.044;2024-03-29T06:36:56;10.80;99.90
33761;DHT22;20084;47.912;19.044;2024-03-29T06:39:22;10.80;99.90
33761;DHT22;20084;47.912;19.044;2024-03-29T06:41:48;10.80;99.90
33761;DHT22;20084;47.912;19.044;2024-03-29T06:44:13;10.90;99.90
33761;DHT22;20084;47.912;19.044;2024-03-29T06:46:39;11.00;99.90
33761;DHT22;20084;47.912;19.044;2024-03-29T06:49:05;11.00;99.90
33761;DHT22;20084;47.912;19.044;2024-03-29T06:51:31;11.10;99.90
33761;DHT22;20084;47.912;19.044;2024-03-29T06:53:57;11.10;99.90
33761;DHT22;20084;47.912;19.044;2024-03-29T06:56:22;11.20;99.90
33761;DHT22;20084;47.912;19.044;2024-03-29T06:58:48;11.20;99.90
33761;DHT22;20084;47.912;19.044;2024-03-29T07:01:14;11.30;99.90
33761;DHT22;20084;47.912;19.044;2024-03-29T07:03:40;11.40;99.90
33761;DHT22;20084;47.912;19.044;2024-03-29T07:06:06;11.40;99.90
33761;DHT22;20084;47.912;19.044;2024-03-29T07:08:32;11.40;99.90
33761;DHT22;20084;47.912;19.044;2024-03-29T07:11:01;11.60;99.90
33761;DHT22;20084;47.912;19.044;2024-03-29T07:13:29;11.70;99.90
33761;DHT22;20084;47.912;19.044;2024-03-29T07:16:00;11.70;99.90
33761;DHT22;20084;47.912;19.044;2024-03-29T07:18:26;11.80;99.90
33761;DHT22;20084;47.912;19.044;2024-03-29T07:20:52;11.90;99.90
33761;DHT22;20084;47.912;19.044;2024-03-29T07:23:18;12.00;99.90
33761;DHT22;20084;47.912;19.044;2024-03-29T07:25:45;12.00;99.90
33761;DHT22;20084;47.912;19.044;2024-03-29T07:28:11;12.00;99.90
33761;DHT22;20084;47.912;19.044;2024-03-29T07:30:43;12.00;99.90
33761;DHT22;20084;47.912;19.044;2024-03-29T07:33:10;12.00;99.90
33761;DHT22;20084;47.912;19.044;2024-03-29T07:35:36;12.10;99.90
33761;DHT22;20084;47.912;19.044;2024-03-29T07:38:03;12.00;99.90
33761;DHT22;20084;47.912;19.044;2024-03-29T07:40:29;11.90;99.90
33761;DHT22;20084;47.912;19.044;2024-03-29T07:42:54;11.90;99.90
33761;DHT22;20084;47.912;19.044;2024-03-29T07:45:21;12.00;99.90
33761;DHT22;20084;47.912;19.044;2024-03-29T07:47:46;12.00;99.90
33761;DHT22;20084;47.912;19.044;2024-03-29T07:50:18;12.10;99.90
33761;DHT22;20084;47.912;19.044;2024-03-29T07:52:47;12.20;99.90
33761;DHT22;20084;47.912;19.044;2024-03-29T07:55:13;12.20;99.90
33761;DHT22;20084;47.912;19.044;2024-03-29T07:57:38;12.30;99.90
33761;DHT22;20084;47.912;19.044;2024-03-29T08:00:05;12.40;99.90
33761;DHT22;20084;47.912;19.044;2024-03-29T08:02:32;12.50;99.90
33761;DHT22;20084;47.912;19.044;2024-03-29T08:04:58;12.60;99.90
33761;DHT22;20084;47.912;19.044;2024-03-29T08:07:24;12.80;99.90
33761;DHT22;20084;47.912;19.044;2024-03-29T08:09:50;12.90;99.90
33761;DHT22;20084;47.912;19.044;2024-03-29T08:12:16;13.10;99.90
33761;DHT22;20084;47.912;19.044;2024-03-29T08:14:42;13.20;99.90
33761;DHT22;20084;47.912;19.044;2024-03-29T08:17:08;13.30;99.90
33761;DHT22;20084;47.912;19.044;2024-03-29T08:19:36;13.40;99.90
33761;DHT22;20084;47.912;19.044;2024-03-29T08:22:02;13.50;99.90
33761;DHT22;20084;47.912;19.044;2024-03-29T08:24:28;13.60;99.90
33761;DHT22;20084;47.912;19.044;2024-03-29T08:26:54;13.70;99.90
33761;DHT22;20084;47.912;19.044;2024-03-29T08:29:19;13.80;99.90
33761;DHT22;20084;47.912;19.044;2024-03-29T08:31:45;13.90;99.90
33761;DHT22;20084;47.912;19.044;2024-03-29T08:34:11;13.90;99.90
33761;DHT22;20084;47.912;19.044;2024-03-29T08:36:39;14.00;99.90
33761;DHT22;20084;47.912;19.044;2024-03-29T08:39:05;14.10;99.90
33761;DHT22;20084;47.912;19.044;2024-03-29T08:41:31;14.20;99.90
33761;DHT22;20084;47.912;19.044;2024-03-29T08:43:57;14.20;99.90
33761;DHT22;20084;47.912;19.044;2024-03-29T08:46:22;14.40;99.90
33761;DHT22;20084;47.912;19.044;2024-03-29T08:48:48;14.40;99.90
33761;DHT22;20084;47.912;19.044;2024-03-29T08:51:14;14.50;99.90
33761;DHT22;20084;47.912;19.044;2024-03-29T08:53:43;14.60;99.90
33761;DHT22;20084;47.912;19.044;2024-03-29T08:56:08;14.60;99.90
33761;DHT22;20084;47.912;19.044;2024-03-29T08:58:34;14.70;99.90
33761;DHT22;20084;47.912;19.044;2024-03-29T09:01:00;14.80;99.90
33761;DHT22;20084;47.912;19.044;2024-03-29T09:03:29;14.80;99.90
33761;DHT22;20084;47.912;19.044;2024-03-29T09:05:55;14.80;99.90
33761;DHT22;20084;47.912;19.044;2024-03-29T09:08:21;14.80;99.90
33761;DHT22;20084;47.912;19.044;2024-03-29T09:10:46;14.80;99.90
33761;DHT22;20084;47.912;19.044;2024-03-29T09:13:12;14.80;99.90
33761;DHT22;20084;47.912;19.044;2024-03-29T09:15:38;14.80;99.90
33761;DHT22;20084;47.912;19.044;2024-03-29T09:18:04;14.70;99.90
33761;DHT22;20084;47.912;19.044;2024-03-29T09:20:44;14.70;99.90
33761;DHT22;20084;47.912;19.044;2024-03-29T09:23:11;14.80;99.90
33761;DHT22;20084;47.912;19.044;2024-03-29T09:25:41;14.80;99.90
33761;DHT22;20084;47.912;19.044;2024-03-29T09:28:06;14.90;99.90
33761;DHT22;20084;47.912;19.044;2024-03-29T09:30:33;14.80;99.90
33761;DHT22;20084;47.912;19.044;2024-03-29T09:32:58;14.80;99.90
33761;DHT22;20084;47.912;19.044;2024-03-29T09:35:24;14.80;99.90
33761;DHT22;20084;47.912;19.044;2024-03-29T09:37:50;14.70;99.90
33761;DHT22;20084;47.912;19.044;2024-03-29T09:40:16;14.70;99.90
33761;DHT22;20084;47.912;19.044;2024-03-29T09:42:44;14.60;99.90
33761;DHT22;20084;47.912;19.044;2024-03-29T09:45:11;14.60;99.90
33761;DHT22;20084;47.912;19.044;2024-03-29T09:47:37;14.60;99.90
33761;DHT22;20084;47.912;19.044;2024-03-29T09:50:04;14.60;99.90
33761;DHT22;20084;47.912;19.044;2024-03-29T09:52:33;14.70;99.90
33761;DHT22;20084;47.912;19.044;2024-03-29T09:55:00;14.60;99.90
33761;DHT22;20084;47.912;19.044;2024-03-29T09:57:27;14.60;99.90
33761;DHT22;20084;47.912;19.044;2024-03-29T09:59:57;14.60;99.90
33761;DHT22;20084;47.912;19.044;2024-03-29T10:02:26;14.60;99.90
33761;DHT22;20084;47.912;19.044;2024-03-29T10:04:54;14.60;99.90
33761;DHT22;20084;47.912;19.044;2024-03-29T10:07:21;14.60;99.90
33761;DHT22;20084;47.912;19.044;2024-03-29T10:09:47;14.60;99.90
33761;DHT22;20084;47.912;19.044;2024-03-29T10:12:13;14.60;99.90
33761;DHT22;20084;47.912;19.044;2024-03-29T10:14:49;14.50;99.90
33761;DHT22;20084;47.912;19.044;2024-03-29T10:17:17;14.60;99.90
33761;DHT22;20084;47.912;19.044;2024-03-29T10:19:44;14.60;99.90
33761;DHT22;20084;47.912;19.044;2024-03-29T10:22:09;14.70;99.90
33761;DHT22;20084;47.912;19.044;2024-03-29T10:24:36;14.70;99.90
33761;DHT22;20084;47.912;19.044;2024-03-29T10:27:03;14.70;99.90
33761;DHT22;20084;47.912;19.044;2024-03-29T10:29:29;14.70;99.90
33761;DHT22;20084;47.912;19.044;2024-03-29T10:31:58;14.70;99.90
33761;DHT22;20084;47.912;19.044;2024-03-29T10:34:27;14.70;99.90
33761;DHT22;20084;47.912;19.044;2024-03-29T10:36:55;14.80;99.90
33761;DHT22;20084;47.912;19.044;2024-03-29T10:39:21;14.80;99.90
33761;DHT22;20084;47.912;19.044;2024-03-29T10:41:47;14.80;99.90
33761;DHT22;20084;47.912;19.044;2024-03-29T10:44:13;14.90;99.90
33761;DHT22;20084;47.912;19.044;2024-03-29T10:46:40;14.90;99.90
33761;DHT22;20084;47.912;19.044;2024-03-29T10:49:08;14.90;99.90
33761;DHT22;20084;47.912;19.044;2024-03-29T10:51:41;14.90;99.90
33761;DHT22;20084;47.912;19.044;2024-03-29T10:54:11;15.00;99.90
33761;DHT22;20084;47.912;19.044;2024-03-29T10:56:37;15.10;99.90
33761;DHT22;20084;47.912;19.044;2024-03-29T10:59:24;15.10;99.90
33761;DHT22;20084;47.912;19.044;2024-03-29T11:01:59;15.10;99.90
33761;DHT22;20084;47.912;19.044;2024-03-29T11:04:33;15.10;99.90
33761;DHT22;20084;47.912;19.044;2024-03-29T11:07:06;15.10;99.90
33761;DHT22;20084;47.912;19.044;2024-03-29T11:09:33;15.20;99.90
33761;DHT22;20084;47.912;19.044;2024-03-29T11:12:01;15.20;99.90
33761;DHT22;20084;47.912;19.044;2024-03-29T11:14:37;15.30;99.90
33761;DHT22;20084;47.912;19.044;2024-03-29T11:17:05;15.30;99.90
33761;DHT22;20084;47.912;19.044;2024-03-29T11:19:31;15.30;99.90
33761;DHT22;20084;47.912;19.044;2024-03-29T11:21:57;15.30;99.90
33761;DHT22;20084;47.912;19.044;2024-03-29T11:24:23;15.30;99.90
33761;DHT22;20084;47.912;19.044;2024-03-29T11:26:49;15.40;99.90
33761;DHT22;20084;47.912;19.044;2024-03-29T11:29:22;15.40;99.90
33761;DHT22;20084;47.912;19.044;2024-03-29T11:31:56;15.50;99.90
33761;DHT22;20084;47.912;19.044;2024-03-29T11:34:22;15.60;99.90
33761;DHT22;20084;47.912;19.044;2024-03-29T11:36:48;15.60;99.90
33761;DHT22;20084;47.912;19.044;2024-03-29T11:39:20;15.70;99.90
33761;DHT22;20084;47.912;19.044;2024-03-29T11:41:47;15.70;99.90
33761;DHT22;20084;47.912;19.044;2024-03-29T11:44:14;15.80;99.90
33761;DHT22;20084;47.912;19.044;2024-03-29T11:46:40;15.80;99.90
33761;DHT22;20084;47.912;19.044;2024-03-29T11:49:06;15.80;99.90
33761;DHT22;20084;47.912;19.044;2024-03-29T11:51:31;15.80;99.90
33761;DHT22;20084;47.912;19.044;2024-03-29T11:54:00;15.80;99.90
33761;DHT22;20084;47.912;19.044;2024-03-29T11:56:25;15.80;99.90
33761;DHT22;20084;47.912;19.044;2024-03-29T11:58:51;15.80;99.90
33761;DHT22;20084;47.912;19.044;2024-03-29T12:01:18;15.80;99.90
33761;DHT22;20084;47.912;19.044;2024-03-29T12:03:44;15.90;99.90
33761;DHT22;20084;47.912;19.044;2024-03-29T12:06:10;15.90;99.90
33761;DHT22;20084;47.912;19.044;2024-03-29T12:08:38;15.90;99.90
33761;DHT22;20084;47.912;19.044;2024-03-29T12:11:04;15.90;99.90
33761;DHT22;20084;47.912;19.044;2024-03-29T12:13:31;16.00;99.90
33761;DHT22;20084;47.912;19.044;2024-03-29T12:15:57;16.00;99.90
33761;DHT22;20084;47.912;19.044;2024-03-29T12:18:24;16.00;99.90
33761;DHT22;20084;47.912;19.044;2024-03-29T12:20:55;16.00;99.90
33761;DHT22;20084;47.912;19.044;2024-03-29T12:23:21;16.00;99.90
33761;DHT22;20084;47.912;19.044;2024-03-29T12:25:49;16.00;99.90
33761;DHT22;20084;47.912;19.044;2024-03-29T12:28:15;16.00;99.90
33761;DHT22;20084;47.912;19.044;2024-03-29T12:30:45;16.10;99.90
33761;DHT22;20084;47.912;19.044;2024-03-29T12:33:13;16.10;99.90
33761;DHT22;20084;47.912;19.044;2024-03-29T12:35:45;16.10;99.90
33761;DHT22;20084;47.912;19.044;2024-03-29T12:38:14;16.10;99.90
33761;DHT22;20084;47.912;19.044;2024-03-29T12:40:42;16.20;99.90
33761;DHT22;20084;47.912;19.044;2024-03-29T12:43:10;16.20;99.90
33761;DHT22;20084;47.912;19.044;2024-03-29T12:45:38;16.20;99.90
33761;DHT22;20084;47.912;19.044;2024-03-29T12:48:18;16.30;99.90
33761;DHT22;20084;47.912;19.044;2024-03-29T12:50:45;16.30;99.90
33761;DHT22;20084;47.912;19.044;2024-03-29T12:53:14;16.30;99.90
33761;DHT22;20084;47.912;19.044;2024-03-29T12:55:45;16.30;99.90
33761;DHT22;20084;47.912;19.044;2024-03-29T12:58:16;16.40;99.90
33761;DHT22;20084;47.912;19.044;2024-03-29T13:00:43;16.40;99.90
33761;DHT22;20084;47.912;19.044;2024-03-29T13:03:09;16.40;99.90
33761;DHT22;20084;47.912;19.044;2024-03-29T13:05:36;16.40;99.90
33761;DHT22;20084;47.912;19.044;2024-03-29T13:08:10;16.50;99.90
33761;DHT22;20084;47.912;19.044;2024-03-29T13:10:37;16.50;99.90
33761;DHT22;20084;47.912;19.044;2024-03-29T13:13:03;16.50;99.90
33761;DHT22;20084;47.912;19.044;2024-03-29T13:15:28;16.50;99.90
33761;DHT22;20084;47.912;19.044;2024-03-29T13:17:55;16.50;99.90
33761;DHT22;20084;47.912;19.044;2024-03-29T13:20:22;16.50;99.90
33761;DHT22;20084;47.912;19.044;2024-03-29T13:22:49;16.60;99.90
33761;DHT22;20084;47.912;19.044;2024-03-29T13:25:21;16.60;99.90
33761;DHT22;20084;47.912;19.044;2024-03-29T13:27:50;16.60;99.90
33761;DHT22;20084;47.912;19.044;2024-03-29T13:30:21;16.70;99.90
33761;DHT22;20084;47.912;19.044;2024-03-29T13:32:47;16.70;99.90
33761;DHT22;20084;47.912;19.044;2024-03-29T13:35:14;16.60;99.90
33761;DHT22;20084;47.912;19.044;2024-03-29T13:37:41;16.60;99.90
33761;DHT22;20084;47.912;19.044;2024-03-29T13:40:09;16.70;99.90
33761;DHT22;20084;47.912;19.044;2024-03-29T13:42:36;16.70;99.90
33761;DHT22;20084;47.912;19.044;2024-03-29T13:45:02;16.80;99.90
33761;DHT22;20084;47.912;19.044;2024-03-29T13:47:28;16.80;99.90
33761;DHT22;20084;47.912;19.044;2024-03-29T13:49:53;16.80;99.90
33761;DHT22;20084;47.912;19.044;2024-03-29T13:52:21;16.80;99.90
33761;DHT22;20084;47.912;19.044;2024-03-29T13:54:47;16.90;99.90
33761;DHT22;20084;47.912;19.044;2024-03-29T13:57:19;16.80;99.90
33761;DHT22;20084;47.912;19.044;2024-03-29T13:59:45;16.80;99.90
33761;DHT22;20084;47.912;19.044;2024-03-29T14:02:16;16.80;99.90
33761;DHT22;20084;47.912;19.044;2024-03-29T14:04:44;16.90;99.90
33761;DHT22;20084;47.912;19.044;2024-03-29T14:07:10;16.80;99.90
33761;DHT22;20084;47.912;19.044;2024-03-29T14:09:40;16.80;99.90
33761;DHT22;20084;47.912;19.044;2024-03-29T14:12:06;16.90;99.90
33761;DHT22;20084;47.912;19.044;2024-03-29T14:14:33;16.90;99.90
33761;DHT22;20084;47.912;19.044;2024-03-29T14:16:59;16.90;99.90
33761;DHT22;20084;47.912;19.044;2024-03-29T14:19:33;16.90;99.90
33761;DHT22;20084;47.912;19.044;2024-03-29T14:22:02;16.90;99.90
33761;DHT22;20084;47.912;19.044;2024-03-29T14:24:29;17.00;99.90
33761;DHT22;20084;47.912;19.044;2024-03-29T14:26:59;17.00;99.90
33761;DHT22;20084;47.912;19.044;2024-03-29T14:29:25;17.00;99.90
33761;DHT22;20084;47.912;19.044;2024-03-29T14:31:51;17.00;99.90
33761;DHT22;20084;47.912;19.044;2024-03-29T14:34:19;17.10;99.90
33761;DHT22;20084;47.912;19.044;2024-03-29T14:36:45;17.10;99.90
33761;DHT22;20084;47.912;19.044;2024-03-29T14:39:11;17.10;99.90
33761;DHT22;20084;47.912;19.044;2024-03-29T14:41:41;17.20;99.90
33761;DHT22;20084;47.912;19.044;2024-03-29T14:44:07;17.20;99.90
33761;DHT22;20084;47.912;19.044;2024-03-29T14:46:33;17.10;99.90
33761;DHT22;20084;47.912;19.044;2024-03-29T14:49:00;17.20;99.90
33761;DHT22;20084;47.912;19.044;2024-03-29T14:51:26;17.20;99.90
33761;DHT22;20084;47.912;19.044;2024-03-29T14:53:53;17.20;99.90
33761;DHT22;20084;47.912;19.044;2024-03-29T14:56:19;17.20;99.90
33761;DHT22;20084;47.912;19.044;2024-03-29T14:58:45;17.20;99.90
33761;DHT22;20084;47.912;19.044;2024-03-29T15:01:12;17.20;99.90
33761;DHT22;20084;47.912;19.044;2024-03-29T15:03:38;17.20;99.90
33761;DHT22;20084;47.912;19.044;2024-03-29T15:06:04;17.20;99.90
33761;DHT22;20084;47.912;19.044;2024-03-29T15:08:30;17.20;99.90
33761;DHT22;20084;47.912;19.044;2024-03-29T15:11:01;17.20;99.90
33761;DHT22;20084;47.912;19.044;2024-03-29T15:13:28;17.30;99.90
33761;DHT22;20084;47.912;19.044;2024-03-29T15:15:59;17.30;99.90
33761;DHT22;20084;47.912;19.044;2024-03-29T15:18:25;17.20;99.90
33761;DHT22;20084;47.912;19.044;2024-03-29T15:21:01;17.30;99.90